createdAt,value
2018-12-12T00:00:09.979Z,2.23
2018-12-12T00:02:39.972Z,2.03
2018-12-12T00:05:09.535Z,1.93
2018-12-12T00:07:39.310Z,1.70
2018-12-12T00:10:13.296Z,1.40
2018-12-12T00:12:43.561Z,1.60
2018-12-12T00:15:13.546Z,1.77
2018-12-12T00:17:43.544Z,1.57
2018-12-12T00:20:13.011Z,1.50
2018-12-12T00:22:42.992Z,1.50
2018-12-12T00:25:13.522Z,1.60
2018-12-12T00:27:44.018Z,1.73
2018-12-12T00:30:13.552Z,1.60
2018-12-12T00:32:43.193Z,1.47
2018-12-12T00:35:13.487Z,1.27
2018-12-12T00:37:43.156Z,1.60
2018-12-12T00:40:13.975Z,2.40
2018-12-12T00:42:44.325Z,1.20
2018-12-12T00:45:13.933Z,1.73
2018-12-12T00:47:43.682Z,1.47
2018-12-12T00:50:13.385Z,1.13
2018-12-12T00:52:43.038Z,1.33
2018-12-12T00:55:13.253Z,1.10
2018-12-12T00:57:43.201Z,2.20
2018-12-12T01:00:12.990Z,1.50
2018-12-12T01:02:43.146Z,0.90
2018-12-12T01:05:12.966Z,0.97
2018-12-12T01:07:42.526Z,1.10
2018-12-12T01:10:12.813Z,0.90
2018-12-12T01:12:42.309Z,1.63
2018-12-12T01:15:12.165Z,2.80
2018-12-12T01:17:41.536Z,1.07
2018-12-12T01:20:11.385Z,1.30
2018-12-12T01:22:41.468Z,1.30
2018-12-12T01:25:11.351Z,2.00
2018-12-12T01:27:41.796Z,1.43
2018-12-12T01:30:11.528Z,2.33
2018-12-12T01:32:41.105Z,1.43
2018-12-12T01:35:11.341Z,1.20
2018-12-12T01:37:41.018Z,1.77
2018-12-12T01:40:10.585Z,1.97
2018-12-12T01:42:40.111Z,1.47
2018-12-12T01:45:09.816Z,1.70
2018-12-12T01:47:39.663Z,2.20
2018-12-12T01:50:09.320Z,2.50
2018-12-12T01:52:39.330Z,1.57
2018-12-12T01:55:09.027Z,1.70
2018-12-12T01:57:38.833Z,1.90
2018-12-12T02:00:08.496Z,2.00
2018-12-12T02:02:38.464Z,1.93
2018-12-12T02:05:08.422Z,2.00
2018-12-12T02:07:38.684Z,1.70
2018-12-12T02:10:10.305Z,2.10
2018-12-12T02:12:40.514Z,1.73
2018-12-12T02:15:10.436Z,1.87
2018-12-12T02:17:40.050Z,2.37
2018-12-12T02:20:10.409Z,1.83
2018-12-12T02:22:40.230Z,2.50
2018-12-12T02:25:09.746Z,2.20
2018-12-12T02:27:40.017Z,1.60
2018-12-12T02:30:10.200Z,2.50
2018-12-12T02:32:39.898Z,1.60
2018-12-12T02:35:09.589Z,2.10
2018-12-12T02:37:39.323Z,2.40
2018-12-12T02:40:09.033Z,2.07
2018-12-12T02:42:39.603Z,2.10
2018-12-12T02:45:10.198Z,3.30
2018-12-12T02:47:39.931Z,1.80
2018-12-12T02:50:09.606Z,1.83
2018-12-12T02:52:39.514Z,1.90
2018-12-12T02:55:09.918Z,2.40
2018-12-12T02:57:39.765Z,2.23
2018-12-12T03:00:10.045Z,2.13
2018-12-12T03:02:39.768Z,2.77
2018-12-12T03:05:09.474Z,2.20
2018-12-12T03:07:39.139Z,1.80
2018-12-12T03:10:09.049Z,2.20
2018-12-12T03:12:39.429Z,2.37
2018-12-12T03:15:09.240Z,1.97
2018-12-12T03:17:38.912Z,2.13
2018-12-12T03:20:09.128Z,2.20
2018-12-12T03:22:38.790Z,2.27
2018-12-12T03:25:08.761Z,2.37
2018-12-12T03:27:38.682Z,2.37
2018-12-12T03:30:09.128Z,2.93
2018-12-12T03:32:38.903Z,2.33
2018-12-12T03:35:08.917Z,2.40
2018-12-12T03:37:39.726Z,2.30
2018-12-12T03:40:09.841Z,2.67
2018-12-12T03:42:40.178Z,2.53
2018-12-12T03:45:10.053Z,2.40
2018-12-12T03:47:39.844Z,2.27
2018-12-12T03:50:09.992Z,3.43
2018-12-12T03:52:39.739Z,2.13
2018-12-12T03:55:09.546Z,2.40
2018-12-12T03:57:39.164Z,2.20
2018-12-12T04:00:09.686Z,1.80
2018-12-12T04:02:39.259Z,2.33
2018-12-12T04:05:09.079Z,2.27
2018-12-12T04:07:38.837Z,2.80
2018-12-12T04:10:08.995Z,2.13
2018-12-12T04:12:39.484Z,2.43
2018-12-12T04:15:09.437Z,1.77
2018-12-12T04:17:38.938Z,2.20
2018-12-12T04:20:08.885Z,2.60
2018-12-12T04:22:38.684Z,1.90
2018-12-12T04:25:09.710Z,2.00
2018-12-12T04:27:39.219Z,1.90
2018-12-12T04:30:10.272Z,1.90
2018-12-12T04:32:40.551Z,1.50
2018-12-12T04:35:10.351Z,1.63
2018-12-12T04:37:41.203Z,2.00
2018-12-12T04:40:11.103Z,1.70
2018-12-12T04:42:41.048Z,1.80
2018-12-12T04:45:10.889Z,1.67
2018-12-12T04:47:42.112Z,2.40
2018-12-12T04:50:11.939Z,1.73
2018-12-12T04:52:42.550Z,3.37
2018-12-12T04:55:12.413Z,2.27
2018-12-12T04:57:44.895Z,2.20
2018-12-12T05:00:15.752Z,2.30
2018-12-12T05:02:46.104Z,2.20
2018-12-12T05:05:16.142Z,2.13
2018-12-12T05:07:46.923Z,3.50
2018-12-12T05:10:17.676Z,2.03
2018-12-12T05:12:47.472Z,2.10
2018-12-12T05:15:19.093Z,2.00
2018-12-12T05:17:48.717Z,2.00
2018-12-12T05:20:18.404Z,2.10
2018-12-12T05:22:48.772Z,2.43
2018-12-12T05:25:19.240Z,2.17
2018-12-12T05:27:48.897Z,1.87
2018-12-12T05:30:18.688Z,1.93
2018-12-12T05:32:51.606Z,1.90
2018-12-12T05:35:21.293Z,1.90
2018-12-12T05:37:52.336Z,1.80
2018-12-12T05:40:22.815Z,1.80
2018-12-12T05:42:55.380Z,1.77
2018-12-12T05:45:25.304Z,2.10
2018-12-12T05:47:55.552Z,1.93
2018-12-12T05:50:25.143Z,1.90
2018-12-12T05:52:54.919Z,2.07
2018-12-12T05:55:25.427Z,2.63
2018-12-12T05:57:54.923Z,2.17
2018-12-12T06:00:24.501Z,2.50
2018-12-12T06:02:55.107Z,2.20
2018-12-12T06:05:24.695Z,2.33
2018-12-12T06:07:54.421Z,3.03
2018-12-12T06:10:24.136Z,2.43
2018-12-12T06:12:54.825Z,2.40
2018-12-12T06:15:24.387Z,2.47
2018-12-12T06:17:54.185Z,2.23
2018-12-12T06:20:23.847Z,2.93
2018-12-12T06:22:54.045Z,2.63
2018-12-12T06:25:24.703Z,2.40
2018-12-12T06:27:55.276Z,2.53
2018-12-12T06:30:27.141Z,1.93
2018-12-12T06:32:57.110Z,2.07
2018-12-12T06:35:26.823Z,2.00
2018-12-12T06:37:56.701Z,3.07
2018-12-12T06:40:26.557Z,2.17
2018-12-12T06:42:56.279Z,2.27
2018-12-12T06:45:26.020Z,2.70
2018-12-12T06:47:55.558Z,2.53
2018-12-12T06:50:25.068Z,2.60
2018-12-12T06:52:54.965Z,2.73
2018-12-12T06:55:24.888Z,3.33
2018-12-12T06:57:55.154Z,2.37
2018-12-12T07:00:24.952Z,2.60
2018-12-12T07:02:54.552Z,2.90
2018-12-12T07:05:24.072Z,2.40
2018-12-12T07:07:54.018Z,2.63
2018-12-12T07:10:23.544Z,2.80
2018-12-12T07:12:53.387Z,2.43
2018-12-12T07:15:22.902Z,3.40
2018-12-12T07:17:52.432Z,2.70
2018-12-12T07:20:21.966Z,2.30
2018-12-12T07:22:51.721Z,3.07
2018-12-12T07:25:21.539Z,3.90
2018-12-12T07:27:51.669Z,2.73
2018-12-12T07:30:21.465Z,2.60
2018-12-12T07:32:51.120Z,3.03
2018-12-12T07:35:20.973Z,2.83
2018-12-12T07:37:50.558Z,3.20
2018-12-12T07:40:21.234Z,3.07
2018-12-12T07:42:51.504Z,2.97
2018-12-12T07:45:21.076Z,2.90
2018-12-12T07:47:50.534Z,2.87
2018-12-12T07:50:20.032Z,3.70
2018-12-12T07:52:49.572Z,2.80
2018-12-12T07:55:19.035Z,3.67
2018-12-12T07:57:48.632Z,3.13
2018-12-12T08:00:18.411Z,4.80
2018-12-12T08:02:48.443Z,2.70
2018-12-12T08:05:18.031Z,2.47
2018-12-12T08:07:47.686Z,2.77
2018-12-12T08:10:17.480Z,2.73
2018-12-12T08:12:47.296Z,2.20
2018-12-12T08:15:17.026Z,1.83
2018-12-12T08:17:46.526Z,1.83
2018-12-12T08:20:16.256Z,1.80
2018-12-12T08:22:45.844Z,2.20
2018-12-12T08:25:15.345Z,1.90
2018-12-12T08:27:44.889Z,1.77
2018-12-12T08:30:14.311Z,1.93
2018-12-12T08:32:44.579Z,2.60
2018-12-12T08:35:14.152Z,2.40
2018-12-12T08:37:43.695Z,2.23
2018-12-12T08:40:14.006Z,2.70
2018-12-12T08:42:43.486Z,2.53
2018-12-12T08:45:12.931Z,2.47
2018-12-12T08:47:42.635Z,2.10
2018-12-12T08:50:13.185Z,2.23
2018-12-12T08:52:42.719Z,2.60
2018-12-12T08:55:17.595Z,2.70
2018-12-12T08:57:44.595Z,3.00
2018-12-12T09:00:14.323Z,2.90
2018-12-12T09:02:43.943Z,2.73
2018-12-12T09:05:13.356Z,3.47
2018-12-12T09:07:42.809Z,4.93
2018-12-12T09:10:12.961Z,4.73
2018-12-12T09:12:42.487Z,4.20
2018-12-12T09:15:12.636Z,4.63
2018-12-12T09:17:42.181Z,4.23
2018-12-12T09:20:11.598Z,4.67
2018-12-12T09:22:41.143Z,4.17
2018-12-12T09:25:11.355Z,4.33
2018-12-12T09:27:41.044Z,5.20
2018-12-12T09:30:10.877Z,4.97
2018-12-12T09:32:40.605Z,4.87
2018-12-12T09:35:10.200Z,5.27
2018-12-12T09:37:40.147Z,5.07
2018-12-12T09:40:09.769Z,7.90
2018-12-12T09:42:39.554Z,5.37
2018-12-12T09:45:09.332Z,5.43
2018-12-12T09:47:40.530Z,5.93
2018-12-12T09:50:10.284Z,5.20
2018-12-12T09:52:39.852Z,5.03
2018-12-12T09:55:09.384Z,5.77
2018-12-12T09:57:40.139Z,5.97
2018-12-12T10:00:10.398Z,5.50
2018-12-12T10:02:39.860Z,5.97
2018-12-12T10:05:09.565Z,5.60
2018-12-12T10:07:40.095Z,5.27
2018-12-12T10:10:09.637Z,6.13
2018-12-12T10:12:39.326Z,5.63
2018-12-12T10:15:09.657Z,6.27
2018-12-12T10:17:39.921Z,5.47
2018-12-12T10:20:09.595Z,5.73
2018-12-12T10:22:39.368Z,6.17
2018-12-12T10:25:09.215Z,6.27
2018-12-12T10:27:38.776Z,6.17
2018-12-12T10:30:09.680Z,5.67
2018-12-12T10:32:39.202Z,6.30
2018-12-12T10:35:08.749Z,7.70
2018-12-12T10:37:38.188Z,6.70
2018-12-12T10:40:08.026Z,7.10
2018-12-12T10:42:38.197Z,6.43
2018-12-12T10:45:08.791Z,6.37
2018-12-12T10:47:38.315Z,7.57
2018-12-12T10:50:10.008Z,6.53
2018-12-12T10:52:39.573Z,6.70
2018-12-12T10:55:09.311Z,6.23
2018-12-12T10:57:38.823Z,7.20
2018-12-12T11:00:12.928Z,6.77
2018-12-12T11:02:51.210Z,6.63
2018-12-12T11:05:20.844Z,6.93
2018-12-12T11:07:50.416Z,6.20
2018-12-12T11:10:20.617Z,6.70
2018-12-12T11:12:50.303Z,7.23
2018-12-12T11:15:19.865Z,6.53
2018-12-12T11:17:49.569Z,7.07
2018-12-12T11:20:19.422Z,7.10
2018-12-12T11:22:48.991Z,5.90
2018-12-12T11:25:18.504Z,6.27
2018-12-12T11:27:48.184Z,6.27
2018-12-12T11:30:17.923Z,7.23
2018-12-12T11:32:47.394Z,7.03
2018-12-12T11:35:17.336Z,8.03
2018-12-12T11:37:47.109Z,6.80
2018-12-12T11:40:16.660Z,6.97
2018-12-12T11:42:46.356Z,6.53
2018-12-12T11:45:16.802Z,7.67
2018-12-12T11:47:46.783Z,6.50
2018-12-12T11:50:16.818Z,6.53
2018-12-12T11:52:46.383Z,6.63
2018-12-12T11:55:15.774Z,8.30
2018-12-12T11:57:45.696Z,6.60
2018-12-12T12:00:15.588Z,7.03
2018-12-12T12:02:45.568Z,6.40
2018-12-12T12:05:15.337Z,7.90
2018-12-12T12:07:45.160Z,7.37
2018-12-12T12:10:15.161Z,7.20
2018-12-12T12:12:44.910Z,7.30
2018-12-12T12:15:14.404Z,8.07
2018-12-12T12:17:44.424Z,7.13
2018-12-12T12:20:13.990Z,6.63
2018-12-12T12:22:44.076Z,7.10
2018-12-12T12:25:13.713Z,8.60
2018-12-12T12:27:44.027Z,6.53
2018-12-12T12:30:13.680Z,7.43
2018-12-12T12:32:44.147Z,7.17
2018-12-12T12:35:14.280Z,8.20
2018-12-12T12:37:43.800Z,7.87
2018-12-12T12:40:13.452Z,7.57
2018-12-12T12:42:44.506Z,7.20
2018-12-12T12:45:14.038Z,7.30
2018-12-12T12:47:44.375Z,7.97
2018-12-12T12:50:14.882Z,7.53
2018-12-12T12:52:44.898Z,7.77
2018-12-12T12:55:14.396Z,7.23
2018-12-12T12:57:43.951Z,8.37
2018-12-12T13:00:13.791Z,8.43
2018-12-12T13:02:43.336Z,7.60
2018-12-12T13:05:14.017Z,7.53
2018-12-12T13:07:44.575Z,7.30
2018-12-12T13:10:14.311Z,8.13
2018-12-12T13:12:44.810Z,7.47
2018-12-12T13:15:14.955Z,8.63
2018-12-12T13:17:44.526Z,7.97
2018-12-12T13:20:14.513Z,9.70
2018-12-12T13:22:44.184Z,9.27
2018-12-12T13:25:14.056Z,8.07
2018-12-12T13:27:43.602Z,8.57
2018-12-12T13:30:13.283Z,8.00
2018-12-12T13:32:42.964Z,8.67
2018-12-12T13:35:12.559Z,8.53
2018-12-12T13:37:42.226Z,8.87
2018-12-12T13:40:11.932Z,8.57
2018-12-12T13:42:41.404Z,8.43
2018-12-12T13:45:11.572Z,8.90
2018-12-12T13:47:41.122Z,7.87
2018-12-12T13:50:10.936Z,7.83
2018-12-12T13:52:40.812Z,7.33
2018-12-12T13:55:10.576Z,8.40
2018-12-12T13:57:40.735Z,7.67
2018-12-12T14:00:10.671Z,8.53
2018-12-12T14:02:40.261Z,9.80
2018-12-12T14:05:10.549Z,9.80
2018-12-12T14:07:40.122Z,6.60
2018-12-12T14:10:10.494Z,7.63
2018-12-12T14:12:40.716Z,7.20
2018-12-12T14:15:10.887Z,6.67
2018-12-12T14:17:41.191Z,5.73
2018-12-12T14:20:11.111Z,6.87
2018-12-12T14:22:40.780Z,5.93
2018-12-12T14:25:10.571Z,7.83
2018-12-12T14:27:40.149Z,7.00
2018-12-12T14:30:10.550Z,7.53
2018-12-12T14:32:40.368Z,7.73
2018-12-12T14:35:11.340Z,7.13
2018-12-12T14:37:40.744Z,8.33
2018-12-12T14:40:10.686Z,7.37
2018-12-12T14:42:41.007Z,8.83
2018-12-12T14:45:11.723Z,8.43
2018-12-12T14:47:42.532Z,8.07
2018-12-12T14:50:12.305Z,7.43
2018-12-12T14:52:42.867Z,9.23
2018-12-12T14:55:12.419Z,9.03
2018-12-12T14:57:42.091Z,9.33
2018-12-12T15:00:12.388Z,8.67
2018-12-12T15:02:41.984Z,8.87
2018-12-12T15:05:12.206Z,9.67
2018-12-12T15:07:42.775Z,9.40
2018-12-12T15:10:15.742Z,10.10
2018-12-12T15:12:52.190Z,12.47
2018-12-12T15:15:23.963Z,10.50
2018-12-12T15:17:57.990Z,11.00
2018-12-12T15:20:31.173Z,12.30
2018-12-12T15:23:02.154Z,11.87
2018-12-12T15:25:32.005Z,12.30
2018-12-12T15:28:04.340Z,13.37
2018-12-12T15:30:35.124Z,13.07
2018-12-12T15:33:05.283Z,11.77
2018-12-12T15:35:36.871Z,12.43
2018-12-12T15:38:07.178Z,12.67
2018-12-12T15:40:37.049Z,11.13
2018-12-12T15:43:06.928Z,12.83
2018-12-12T15:45:36.600Z,13.97
2018-12-12T15:48:06.392Z,10.53
2018-12-12T15:50:36.145Z,11.90
2018-12-12T15:53:06.042Z,11.03
2018-12-12T15:55:35.655Z,11.87
2018-12-12T15:58:05.546Z,11.67
2018-12-12T16:00:35.540Z,12.87
2018-12-12T16:03:05.733Z,13.53
2018-12-12T16:05:36.167Z,13.13
2018-12-12T16:08:06.539Z,11.37
2018-12-12T16:10:36.454Z,12.80
2018-12-12T16:13:07.042Z,11.07
2018-12-12T16:15:37.361Z,12.77
2018-12-12T16:18:07.899Z,11.87
2018-12-12T16:20:37.594Z,12.17
2018-12-12T16:23:07.437Z,14.47
2018-12-12T16:25:37.611Z,13.80
2018-12-12T16:28:07.317Z,15.23
2018-12-12T16:30:36.913Z,13.30
2018-12-12T16:33:06.836Z,12.57
2018-12-12T16:35:37.290Z,15.60
2018-12-12T16:38:07.221Z,12.63
2018-12-12T16:40:37.083Z,12.97
2018-12-12T16:43:06.822Z,13.33
2018-12-12T16:45:36.431Z,14.07
2018-12-12T16:48:07.846Z,12.37
2018-12-12T16:50:37.673Z,13.17
2018-12-12T16:53:07.307Z,14.47
2018-12-12T16:55:36.947Z,14.77
2018-12-12T16:58:07.575Z,12.87
2018-12-12T17:00:37.151Z,12.67
2018-12-12T17:03:07.469Z,14.37
2018-12-12T17:05:37.270Z,16.50
2018-12-12T17:08:07.875Z,13.93
2018-12-12T17:10:37.525Z,11.37
2018-12-12T17:13:07.213Z,15.97
2018-12-12T17:15:37.706Z,14.40
2018-12-12T17:18:07.456Z,12.93
2018-12-12T17:20:37.049Z,15.30
2018-12-12T17:23:06.705Z,13.33
2018-12-12T17:25:36.416Z,12.17
2018-12-12T17:28:06.200Z,11.63
2018-12-12T17:30:36.309Z,12.80
2018-12-12T17:33:06.156Z,11.70
2018-12-12T17:35:35.785Z,11.60
2018-12-12T17:38:05.732Z,11.27
2018-12-12T17:40:35.272Z,10.07
2018-12-12T17:43:05.022Z,11.60
2018-12-12T17:45:35.072Z,10.00
2018-12-12T17:48:05.033Z,11.27
2018-12-12T17:50:34.658Z,11.20
2018-12-12T17:53:04.234Z,11.37
2018-12-12T17:55:33.787Z,12.33
2018-12-12T17:58:03.351Z,12.57
2018-12-12T18:00:32.863Z,10.73
2018-12-12T18:03:03.503Z,12.23
2018-12-12T18:05:33.156Z,12.80
2018-12-12T18:08:02.927Z,12.57
2018-12-12T18:10:32.872Z,10.90
2018-12-12T18:13:03.494Z,11.70
2018-12-12T18:15:34.119Z,10.77
2018-12-12T18:18:04.004Z,11.67
2018-12-12T18:20:33.677Z,13.10
2018-12-12T18:23:03.365Z,12.50
2018-12-12T18:25:33.134Z,11.57
2018-12-12T18:28:02.776Z,11.70
2018-12-12T18:30:32.552Z,13.17
2018-12-12T18:33:02.315Z,13.90
2018-12-12T18:35:32.041Z,14.27
2018-12-12T18:38:01.779Z,13.53
2018-12-12T18:40:31.435Z,12.10
2018-12-12T18:43:01.483Z,14.33
2018-12-12T18:45:31.352Z,12.10
2018-12-12T18:48:01.674Z,13.93
2018-12-12T18:50:31.517Z,13.67
2018-12-12T18:53:03.190Z,14.50
2018-12-12T18:55:33.253Z,13.50
2018-12-12T18:58:02.780Z,12.30
2018-12-12T19:00:32.523Z,16.20
2018-12-12T19:03:02.018Z,13.83
2018-12-12T19:05:31.752Z,17.43
2018-12-12T19:08:01.311Z,15.03
2018-12-12T19:10:31.966Z,13.77
2018-12-12T19:13:02.898Z,12.80
2018-12-12T19:15:33.308Z,12.43
2018-12-12T19:18:02.996Z,14.03
2018-12-12T19:20:32.792Z,13.33
2018-12-12T19:23:03.737Z,15.40
2018-12-12T19:25:33.597Z,16.73
2018-12-12T19:28:03.304Z,15.67
2018-12-12T19:30:33.826Z,14.47
2018-12-12T19:33:04.079Z,15.03
2018-12-12T19:35:35.642Z,18.93
2018-12-12T19:38:06.468Z,15.70
2018-12-12T19:40:36.134Z,17.63
2018-12-12T19:43:05.935Z,15.57
2018-12-12T19:45:35.817Z,13.43
2018-12-12T19:48:06.132Z,13.37
2018-12-12T19:50:35.950Z,16.57
2018-12-12T19:53:05.941Z,15.33
2018-12-12T19:55:35.528Z,14.13
2018-12-12T19:58:05.779Z,17.13
2018-12-12T20:00:36.363Z,14.53
2018-12-12T20:03:06.272Z,16.50
2018-12-12T20:05:41.404Z,16.20
2018-12-12T20:08:09.400Z,15.40
2018-12-12T20:10:39.243Z,14.27
2018-12-12T20:13:09.124Z,16.70
2018-12-12T20:15:45.984Z,15.67
2018-12-12T20:18:15.771Z,18.33
2018-12-12T20:20:46.555Z,16.53
2018-12-12T20:23:18.441Z,15.03
2018-12-12T20:25:48.781Z,16.00
2018-12-12T20:28:18.991Z,15.70
2018-12-12T20:30:49.545Z,17.30
2018-12-12T20:33:19.393Z,18.13
2018-12-12T20:35:49.144Z,16.10
2018-12-12T20:38:18.710Z,15.77
2018-12-12T20:40:48.408Z,15.63
2018-12-12T20:43:18.214Z,16.27
2018-12-12T20:45:48.173Z,17.30
2018-12-12T20:48:18.013Z,16.63
2018-12-12T20:50:47.718Z,17.60
2018-12-12T20:53:19.016Z,16.50
2018-12-12T20:55:48.720Z,15.83
2018-12-12T20:58:18.358Z,18.17
2018-12-12T21:00:48.187Z,17.63
2018-12-12T21:03:18.939Z,21.07
2018-12-12T21:05:54.350Z,17.93
2018-12-12T21:08:20.003Z,20.57
2018-12-12T21:10:49.662Z,21.93
2018-12-12T21:13:19.557Z,19.07
2018-12-12T21:15:49.138Z,19.27
2018-12-12T21:18:18.707Z,17.27
2018-12-12T21:20:48.207Z,15.73
2018-12-12T21:23:17.803Z,16.40
2018-12-12T21:25:47.563Z,17.60
2018-12-12T21:28:17.029Z,16.37
2018-12-12T21:30:46.665Z,16.37
2018-12-12T21:33:16.147Z,17.27
2018-12-12T21:35:45.669Z,17.10
2018-12-12T21:38:15.439Z,16.47
2018-12-12T21:40:44.938Z,18.07
2018-12-12T21:43:14.477Z,18.30
2018-12-12T21:45:43.943Z,17.07
2018-12-12T21:48:13.574Z,17.20
2018-12-12T21:50:43.184Z,16.60
2018-12-12T21:53:12.763Z,15.47
2018-12-12T21:55:42.199Z,15.03
2018-12-12T21:58:11.961Z,16.67
2018-12-12T22:00:41.381Z,17.80
2018-12-12T22:03:10.932Z,13.97
2018-12-12T22:05:40.427Z,14.20
2018-12-12T22:08:10.622Z,13.20
2018-12-12T22:10:40.313Z,13.97
2018-12-12T22:13:09.908Z,15.90
2018-12-12T22:15:40.107Z,12.40
2018-12-12T22:18:09.670Z,12.87
2018-12-12T22:20:39.192Z,14.23
2018-12-12T22:23:08.713Z,16.57
2018-12-12T22:25:38.315Z,14.97
2018-12-12T22:28:08.535Z,13.63
2018-12-12T22:30:38.246Z,13.60
2018-12-12T22:35:46.923Z,14.67
2018-12-12T22:38:16.443Z,15.70
2018-12-12T22:40:45.910Z,14.13
2018-12-12T22:43:15.585Z,13.57
2018-12-12T22:45:45.209Z,14.63
2018-12-12T22:48:20.645Z,15.47
2018-12-12T22:50:46.725Z,15.60
2018-12-12T22:53:16.182Z,14.87
2018-12-12T22:55:45.612Z,12.37
2018-12-12T22:58:15.273Z,16.90
2018-12-12T23:00:49.905Z,13.30
2018-12-12T23:03:19.564Z,12.57
2018-12-12T23:05:49.060Z,13.93
2018-12-12T23:08:18.556Z,13.60
2018-12-12T23:10:48.036Z,14.90
2018-12-12T23:13:17.517Z,15.10
2018-12-12T23:15:47.093Z,14.73
2018-12-12T23:18:16.761Z,13.10
2018-12-12T23:20:46.358Z,15.43
2018-12-12T23:23:15.940Z,12.77
2018-12-12T23:25:45.614Z,14.57
2018-12-12T23:28:15.222Z,13.63
2018-12-12T23:30:44.751Z,13.87
2018-12-12T23:33:14.342Z,15.37
2018-12-12T23:35:43.848Z,14.20
2018-12-12T23:38:13.432Z,14.37
2018-12-12T23:40:42.940Z,16.30
2018-12-12T23:43:12.454Z,13.50
2018-12-12T23:45:41.884Z,15.50
2018-12-12T23:48:11.493Z,12.50
2018-12-12T23:50:41.127Z,16.70
2018-12-12T23:53:10.629Z,15.33
2018-12-12T23:55:40.139Z,14.57
2018-12-12T23:58:09.629Z,14.83
